<?xml version='1.0' encoding='UTF-8'?>
<gpx xmlns="http://www.topografix.com/GPX/1/1" creator="www.balnam.be" version="1.1" xmlns:xsi="http://www.w3.org/2001/XMLSchema-instance" xsi:schemaLocation="http://www.topografix.com/GPX/1/1 http://www.topografix.com/GPX/1/1/gpx.xsd">
<trk>
<name>lasas10</name>
<cmt>q</cmt>
<desc>Ans Chemin n°10 </desc>
<link href="https://chemins.be/ans/chemin/10"/><trkseg>
<trkpt lat="50.658769" lon="5.518979"><time>2026-05-02T20:42:30Z</time></trkpt>
<trkpt lat="50.658039" lon="5.517513"><time>2026-05-02T20:52:30Z</time></trkpt>
</trkseg></trk>
<trk>
<name>lasas10</name>
<cmt>s</cmt>
<desc>Ans Chemin n°10 </desc>
<link href="https://chemins.be/ans/chemin/10"/><trkseg>
<trkpt lat="50.658039" lon="5.517513"><time>2026-05-02T20:52:30Z</time></trkpt>
<trkpt lat="50.657554" lon="5.517156"><time>2026-05-02T21:02:30Z</time></trkpt>
<trkpt lat="50.654716" lon="5.514187"><time>2026-05-02T21:12:30Z</time></trkpt>
</trkseg>
</trk>
<trk>
<name>lasas11</name>
<cmt>s</cmt>
<desc>Ans Chemin n°11 </desc>
<link href="https://chemins.be/ans/chemin/11"/><trkseg>
<trkpt lat="50.664706" lon="5.512511"><time>2026-05-02T20:42:30Z</time></trkpt>
<trkpt lat="50.664008" lon="5.513079"><time>2026-05-02T20:52:30Z</time></trkpt>
<trkpt lat="50.663135" lon="5.513355"><time>2026-05-02T21:02:30Z</time></trkpt>
</trkseg>
</trk>
<trk>
<name>lasas13</name>
<cmt>v</cmt>
<desc>Ans Chemin n°13 Rue de la Mare</desc>
<link href="https://chemins.be/ans/chemin/13"/><trkseg>
<trkpt lat="50.660837" lon="5.561034"><time>2026-05-02T20:42:30Z</time></trkpt>
<trkpt lat="50.660847" lon="5.560964"><time>2026-05-02T20:52:30Z</time></trkpt>
<trkpt lat="50.660875" lon="5.560794"><time>2026-05-02T21:02:30Z</time></trkpt>
<trkpt lat="50.660986" lon="5.560514"><time>2026-05-02T21:12:30Z</time></trkpt>
<trkpt lat="50.661042" lon="5.560360"><time>2026-05-02T21:22:30Z</time></trkpt>
<trkpt lat="50.661060" lon="5.560304"><time>2026-05-02T21:32:30Z</time></trkpt>
<trkpt lat="50.661215" lon="5.560068"><time>2026-05-02T21:42:30Z</time></trkpt>
<trkpt lat="50.661471" lon="5.559706"><time>2026-05-02T21:52:30Z</time></trkpt>
</trkseg></trk>
<trk>
<name>lasas13</name>
<cmt>r</cmt>
<desc>Ans Chemin n°13 Rue de la Mare</desc>
<link href="https://chemins.be/ans/chemin/13"/><trkseg>
<trkpt lat="50.661471" lon="5.559706"><time>2026-05-02T21:52:30Z</time></trkpt>
<trkpt lat="50.662716" lon="5.557480"><time>2026-05-02T22:02:30Z</time></trkpt>
</trkseg></trk>
<trk>
<name>lasas13</name>
<cmt>q</cmt>
<desc>Ans Chemin n°13 Rue de la Mare</desc>
<link href="https://chemins.be/ans/chemin/13"/><trkseg>
<trkpt lat="50.662716" lon="5.557480"><time>2026-05-02T22:02:30Z</time></trkpt>
<trkpt lat="50.663482" lon="5.555982"><time>2026-05-02T22:12:30Z</time></trkpt>
<trkpt lat="50.664216" lon="5.555035"><time>2026-05-02T22:22:30Z</time></trkpt>
</trkseg>
</trk>
<trk>
<name>lasas17</name>
<cmt>r</cmt>
<desc>Ans Chemin n°17 Rue Hubin</desc>
<link href="https://chemins.be/ans/chemin/17"/><trkseg>
<trkpt lat="50.644668" lon="5.537828"><time>2026-05-02T20:42:30Z</time></trkpt>
<trkpt lat="50.644916" lon="5.537714"><time>2026-05-02T20:52:30Z</time></trkpt>
</trkseg></trk>
<trk>
<name>lasas17</name>
<cmt>s</cmt>
<desc>Ans Chemin n°17 Rue Hubin</desc>
<link href="https://chemins.be/ans/chemin/17"/><trkseg>
<trkpt lat="50.644916" lon="5.537714"><time>2026-05-02T20:52:30Z</time></trkpt>
<trkpt lat="50.646281" lon="5.536810"><time>2026-05-02T21:02:30Z</time></trkpt>
<trkpt lat="50.646559" lon="5.537440"><time>2026-05-02T21:12:30Z</time></trkpt>
<trkpt lat="50.648594" lon="5.539182"><time>2026-05-02T21:22:30Z</time></trkpt>
<trkpt lat="50.650021" lon="5.539454"><time>2026-05-02T21:32:30Z</time></trkpt>
<trkpt lat="50.650098" lon="5.539682"><time>2026-05-02T21:42:30Z</time></trkpt>
</trkseg></trk>
<trk>
<name>lasas17</name>
<cmt>v</cmt>
<desc>Ans Chemin n°17 Rue Hubin</desc>
<link href="https://chemins.be/ans/chemin/17"/><trkseg>
<trkpt lat="50.650098" lon="5.539682"><time>2026-05-02T21:42:30Z</time></trkpt>
<trkpt lat="50.650180" lon="5.539819"><time>2026-05-02T21:52:30Z</time></trkpt>
<trkpt lat="50.650770" lon="5.540455"><time>2026-05-02T22:02:30Z</time></trkpt>
<trkpt lat="50.651000" lon="5.539880"><time>2026-05-02T22:12:30Z</time></trkpt>
</trkseg></trk>
<trk>
<name>lasas17</name>
<cmt>r</cmt>
<desc>Ans Chemin n°17 Rue Hubin</desc>
<link href="https://chemins.be/ans/chemin/17"/><trkseg>
<trkpt lat="50.651000" lon="5.539880"><time>2026-05-02T22:12:30Z</time></trkpt>
<trkpt lat="50.652733" lon="5.539632"><time>2026-05-02T22:22:30Z</time></trkpt>
</trkseg>
</trk>
<trk>
<name>lasas19</name>
<cmt>r</cmt>
<desc>Ans Chemin n°19 Rue Simon Dister / Rue Hubert Goffin / Rue Maurice Yans</desc>
<link href="https://chemins.be/ans/chemin/19"/><trkseg>
<trkpt lat="50.650515" lon="5.545894"><time>2026-05-02T20:42:30Z</time></trkpt>
<trkpt lat="50.650431" lon="5.545808"><time>2026-05-02T20:52:30Z</time></trkpt>
<trkpt lat="50.650620" lon="5.544510"><time>2026-05-02T21:02:30Z</time></trkpt>
<trkpt lat="50.650207" lon="5.541928"><time>2026-05-02T21:12:30Z</time></trkpt>
<trkpt lat="50.650754" lon="5.540469"><time>2026-05-02T21:22:30Z</time></trkpt>
</trkseg></trk>
<trk>
<name>lasas19</name>
<cmt>v</cmt>
<desc>Ans Chemin n°19 Rue Simon Dister / Rue Hubert Goffin / Rue Maurice Yans</desc>
<link href="https://chemins.be/ans/chemin/19"/><trkseg>
<trkpt lat="50.650754" lon="5.540469"><time>2026-05-02T21:22:30Z</time></trkpt>
<trkpt lat="50.650172" lon="5.539832"><time>2026-05-02T21:32:30Z</time></trkpt>
<trkpt lat="50.650107" lon="5.539716"><time>2026-05-02T21:42:30Z</time></trkpt>
</trkseg></trk>
<trk>
<name>lasas19</name>
<cmt>s</cmt>
<desc>Ans Chemin n°19 Rue Simon Dister / Rue Hubert Goffin / Rue Maurice Yans</desc>
<link href="https://chemins.be/ans/chemin/19"/><trkseg>
<trkpt lat="50.650107" lon="5.539716"><time>2026-05-02T21:42:30Z</time></trkpt>
<trkpt lat="50.649758" lon="5.537844"><time>2026-05-02T21:52:30Z</time></trkpt>
<trkpt lat="50.649681" lon="5.535434"><time>2026-05-02T22:02:30Z</time></trkpt>
<trkpt lat="50.649360" lon="5.532544"><time>2026-05-02T22:12:30Z</time></trkpt>
</trkseg></trk>
<trk>
<name>lasas19</name>
<cmt>r</cmt>
<desc>Ans Chemin n°19 Rue Simon Dister / Rue Hubert Goffin / Rue Maurice Yans</desc>
<link href="https://chemins.be/ans/chemin/19"/><trkseg>
<trkpt lat="50.649360" lon="5.532544"><time>2026-05-02T22:12:30Z</time></trkpt>
<trkpt lat="50.649268" lon="5.532025"><time>2026-05-02T22:22:30Z</time></trkpt>
<trkpt lat="50.649228" lon="5.530921"><time>2026-05-02T22:32:30Z</time></trkpt>
<trkpt lat="50.649477" lon="5.530241"><time>2026-05-02T22:42:30Z</time></trkpt>
<trkpt lat="50.649609" lon="5.529433"><time>2026-05-02T22:52:30Z</time></trkpt>
<trkpt lat="50.650516" lon="5.527573"><time>2026-05-02T23:02:30Z</time></trkpt>
</trkseg>
</trk>
<trk>
<name>lasas2</name>
<cmt>r</cmt>
<desc>Ans Chemin n°2 </desc>
<link href="https://chemins.be/ans/chemin/2"/><trkseg>
<trkpt lat="50.655675" lon="5.531400"><time>2026-05-02T20:42:30Z</time></trkpt>
<trkpt lat="50.655457" lon="5.531160"><time>2026-05-02T20:52:30Z</time></trkpt>
<trkpt lat="50.655242" lon="5.530596"><time>2026-05-02T21:02:30Z</time></trkpt>
</trkseg></trk>
<trk>
<name>lasas2</name>
<cmt>s</cmt>
<desc>Ans Chemin n°2 </desc>
<link href="https://chemins.be/ans/chemin/2"/><trkseg>
<trkpt lat="50.655242" lon="5.530596"><time>2026-05-02T21:02:30Z</time></trkpt>
<trkpt lat="50.652937" lon="5.525112"><time>2026-05-02T21:12:30Z</time></trkpt>
</trkseg></trk>
<trk>
<name>lasas2</name>
<cmt>r</cmt>
<desc>Ans Chemin n°2 </desc>
<link href="https://chemins.be/ans/chemin/2"/><trkseg>
<trkpt lat="50.652937" lon="5.525112"><time>2026-05-02T21:12:30Z</time></trkpt>
<trkpt lat="50.652228" lon="5.523381"><time>2026-05-02T21:22:30Z</time></trkpt>
<trkpt lat="50.651996" lon="5.522615"><time>2026-05-02T21:32:30Z</time></trkpt>
<trkpt lat="50.651390" lon="5.520598"><time>2026-05-02T21:42:30Z</time></trkpt>
</trkseg>
</trk>
<trk>
<name>lasas24</name>
<cmt>q</cmt>
<desc>Ans Sentier n°24 </desc>
<link href="https://chemins.be/ans/sentier/24"/><trkseg>
<trkpt lat="50.654786" lon="5.535274"><time>2026-05-02T20:42:30Z</time></trkpt>
<trkpt lat="50.655081" lon="5.535914"><time>2026-05-02T20:52:30Z</time></trkpt>
<trkpt lat="50.655658" lon="5.536538"><time>2026-05-02T21:02:30Z</time></trkpt>
</trkseg></trk>
<trk>
<name>lasas24</name>
<cmt>v</cmt>
<desc>Ans Sentier n°24 </desc>
<link href="https://chemins.be/ans/sentier/24"/><trkseg>
<trkpt lat="50.655658" lon="5.536538"><time>2026-05-02T21:02:30Z</time></trkpt>
<trkpt lat="50.655931" lon="5.536685"><time>2026-05-02T21:12:30Z</time></trkpt>
</trkseg></trk>
<trk>
<name>lasas24</name>
<cmt>q</cmt>
<desc>Ans Sentier n°24 </desc>
<link href="https://chemins.be/ans/sentier/24"/><trkseg>
<trkpt lat="50.655931" lon="5.536685"><time>2026-05-02T21:12:30Z</time></trkpt>
<trkpt lat="50.656214" lon="5.536901"><time>2026-05-02T21:22:30Z</time></trkpt>
<trkpt lat="50.656138" lon="5.537304"><time>2026-05-02T21:32:30Z</time></trkpt>
</trkseg></trk>
<trk>
<name>lasas24</name>
<cmt>v</cmt>
<desc>Ans Sentier n°24 </desc>
<link href="https://chemins.be/ans/sentier/24"/><trkseg>
<trkpt lat="50.656138" lon="5.537304"><time>2026-05-02T21:32:30Z</time></trkpt>
<trkpt lat="50.655946" lon="5.537913"><time>2026-05-02T21:42:30Z</time></trkpt>
<trkpt lat="50.655966" lon="5.538550"><time>2026-05-02T21:52:30Z</time></trkpt>
</trkseg>
</trk>
<trk>
<name>lasas25</name>
<cmt>v</cmt>
<desc>Ans Chemin n°25 </desc>
<link href="https://chemins.be/ans/chemin/25"/><trkseg>
<trkpt lat="50.654548" lon="5.536577"><time>2026-05-02T20:42:30Z</time></trkpt>
<trkpt lat="50.654567" lon="5.536478"><time>2026-05-02T20:52:30Z</time></trkpt>
<trkpt lat="50.654596" lon="5.536239"><time>2026-05-02T21:02:30Z</time></trkpt>
<trkpt lat="50.654664" lon="5.535717"><time>2026-05-02T21:12:30Z</time></trkpt>
<trkpt lat="50.654786" lon="5.535317"><time>2026-05-02T21:22:30Z</time></trkpt>
</trkseg></trk>
<trk>
<name>lasas25</name>
<cmt>q</cmt>
<desc>Ans Chemin n°25 </desc>
<link href="https://chemins.be/ans/chemin/25"/><trkseg>
<trkpt lat="50.654786" lon="5.535317"><time>2026-05-02T21:22:30Z</time></trkpt>
<trkpt lat="50.654480" lon="5.534952"><time>2026-05-02T21:32:30Z</time></trkpt>
</trkseg>
</trk>
<trk>
<name>lasas27</name>
<cmt>v</cmt>
<desc>Ans Chemin n°27 </desc>
<link href="https://chemins.be/ans/chemin/27"/><trkseg>
<trkpt lat="50.653952" lon="5.535102"><time>2026-05-02T20:42:30Z</time></trkpt>
<trkpt lat="50.653276" lon="5.534616"><time>2026-05-02T20:52:30Z</time></trkpt>
</trkseg>
</trk>
<trk>
<name>lasas32</name>
<cmt>v</cmt>
<desc>Ans Chemin n°32 </desc>
<link href="https://chemins.be/ans/chemin/32"/><trkseg>
<trkpt lat="50.654809" lon="5.546660"><time>2026-05-02T20:42:30Z</time></trkpt>
<trkpt lat="50.654861" lon="5.546853"><time>2026-05-02T20:52:30Z</time></trkpt>
<trkpt lat="50.655045" lon="5.547596"><time>2026-05-02T21:02:30Z</time></trkpt>
</trkseg>
</trk>
<trk>
<name>lasas35</name>
<cmt>v</cmt>
<desc>Ans Chemin n°35 </desc>
<link href="https://chemins.be/ans/chemin/35"/><trkseg>
<trkpt lat="50.654124" lon="5.544288"><time>2026-05-02T20:42:30Z</time></trkpt>
<trkpt lat="50.653702" lon="5.544401"><time>2026-05-02T20:52:30Z</time></trkpt>
</trkseg>
</trk>
<trk>
<name>lasas40</name>
<cmt>q</cmt>
<desc>Ans Sentier n°40 Rue de Bierthe</desc>
<link href="https://chemins.be/ans/sentier/40"/><trkseg>
<trkpt lat="50.659126" lon="5.560933"><time>2026-05-02T20:42:30Z</time></trkpt>
<trkpt lat="50.660248" lon="5.557231"><time>2026-05-02T20:52:30Z</time></trkpt>
<trkpt lat="50.660051" lon="5.554592"><time>2026-05-02T21:02:30Z</time></trkpt>
</trkseg></trk>
<trk>
<name>lasas40</name>
<cmt>v</cmt>
<desc>Ans Sentier n°40 Rue de Bierthe</desc>
<link href="https://chemins.be/ans/sentier/40"/><trkseg>
<trkpt lat="50.660051" lon="5.554592"><time>2026-05-02T21:02:30Z</time></trkpt>
<trkpt lat="50.659827" lon="5.552841"><time>2026-05-02T21:12:30Z</time></trkpt>
<trkpt lat="50.659723" lon="5.551872"><time>2026-05-02T21:22:30Z</time></trkpt>
<trkpt lat="50.659096" lon="5.546772"><time>2026-05-02T21:32:30Z</time></trkpt>
<trkpt lat="50.659588" lon="5.546085"><time>2026-05-02T21:42:30Z</time></trkpt>
</trkseg></trk>
<trk>
<name>lasas40</name>
<cmt>s</cmt>
<desc>Ans Sentier n°40 Rue de Bierthe</desc>
<link href="https://chemins.be/ans/sentier/40"/><trkseg>
<trkpt lat="50.659588" lon="5.546085"><time>2026-05-02T21:42:30Z</time></trkpt>
<trkpt lat="50.659552" lon="5.544534"><time>2026-05-02T21:52:30Z</time></trkpt>
<trkpt lat="50.659289" lon="5.542932"><time>2026-05-02T22:02:30Z</time></trkpt>
</trkseg></trk>
<trk>
<name>lasas40</name>
<cmt>q</cmt>
<desc>Ans Sentier n°40 Rue de Bierthe</desc>
<link href="https://chemins.be/ans/sentier/40"/><trkseg>
<trkpt lat="50.659289" lon="5.542932"><time>2026-05-02T22:02:30Z</time></trkpt>
<trkpt lat="50.659057" lon="5.542610"><time>2026-05-02T22:12:30Z</time></trkpt>
</trkseg>
</trk>
<trk>
<name>lasas46</name>
<cmt>r</cmt>
<desc>Ans Chemin/sentier n°46 Rue du Plan Incliné</desc>
<link href="https://chemins.be/ans/chemin/46"/><trkseg>
<trkpt lat="50.653061" lon="5.534480"><time>2026-05-02T20:42:30Z</time></trkpt>
<trkpt lat="50.654124" lon="5.531941"><time>2026-05-02T20:52:30Z</time></trkpt>
<trkpt lat="50.655235" lon="5.529462"><time>2026-05-02T21:02:30Z</time></trkpt>
<trkpt lat="50.655561" lon="5.528719"><time>2026-05-02T21:12:30Z</time></trkpt>
</trkseg></trk>
<trk>
<name>lasas46</name>
<cmt>d</cmt>
<desc>Ans Chemin/sentier n°46 Rue du Plan Incliné</desc>
<link href="https://chemins.be/ans/chemin/46"/><trkseg>
<trkpt lat="50.655561" lon="5.528719"><time>2026-05-02T21:12:30Z</time></trkpt>
<trkpt lat="50.655695" lon="5.528431"><time>2026-05-02T21:22:30Z</time></trkpt>
</trkseg></trk>
<trk>
<name>lasas46</name>
<cmt>s</cmt>
<desc>Ans Chemin/sentier n°46 Rue du Plan Incliné</desc>
<link href="https://chemins.be/ans/chemin/46"/><trkseg>
<trkpt lat="50.655695" lon="5.528431"><time>2026-05-02T21:22:30Z</time></trkpt>
<trkpt lat="50.655532" lon="5.524827"><time>2026-05-02T21:32:30Z</time></trkpt>
<trkpt lat="50.655558" lon="5.523711"><time>2026-05-02T21:42:30Z</time></trkpt>
</trkseg></trk>
<trk>
<name>lasas46</name>
<cmt>r</cmt>
<desc>Ans Chemin/sentier n°46 Rue du Plan Incliné</desc>
<link href="https://chemins.be/ans/chemin/46"/><trkseg>
<trkpt lat="50.655558" lon="5.523711"><time>2026-05-02T21:42:30Z</time></trkpt>
<trkpt lat="50.655597" lon="5.522116"><time>2026-05-02T21:52:30Z</time></trkpt>
</trkseg></trk>
<trk>
<name>lasas46</name>
<cmt>q</cmt>
<desc>Ans Chemin/sentier n°46 Rue du Plan Incliné</desc>
<link href="https://chemins.be/ans/chemin/46"/><trkseg>
<trkpt lat="50.655597" lon="5.522116"><time>2026-05-02T21:52:30Z</time></trkpt>
<trkpt lat="50.655581" lon="5.521688"><time>2026-05-02T22:02:30Z</time></trkpt>
</trkseg></trk>
<trk>
<name>lasas46</name>
<cmt>s</cmt>
<desc>Ans Chemin/sentier n°46 Rue du Plan Incliné</desc>
<link href="https://chemins.be/ans/chemin/46"/><trkseg>
<trkpt lat="50.655581" lon="5.521688"><time>2026-05-02T22:02:30Z</time></trkpt>
<trkpt lat="50.655727" lon="5.520156"><time>2026-05-02T22:12:30Z</time></trkpt>
<trkpt lat="50.656051" lon="5.519492"><time>2026-05-02T22:22:30Z</time></trkpt>
</trkseg></trk>
<trk>
<name>lasas46</name>
<cmt>v</cmt>
<desc>Ans Chemin/sentier n°46 Rue du Plan Incliné</desc>
<link href="https://chemins.be/ans/chemin/46"/><trkseg>
<trkpt lat="50.656051" lon="5.519492"><time>2026-05-02T22:22:30Z</time></trkpt>
<trkpt lat="50.656077" lon="5.519059"><time>2026-05-02T22:32:30Z</time></trkpt>
<trkpt lat="50.656234" lon="5.518475"><time>2026-05-02T22:42:30Z</time></trkpt>
</trkseg>
</trk>
<trk>
<name>lasas47</name>
<cmt>q</cmt>
<desc>Ans Sentier n°47 </desc>
<link href="https://chemins.be/ans/sentier/47"/><trkseg>
<trkpt lat="50.650320" lon="5.510563"><time>2026-05-02T20:42:30Z</time></trkpt>
<trkpt lat="50.653350" lon="5.513524"><time>2026-05-02T20:52:30Z</time></trkpt>
<trkpt lat="50.654483" lon="5.514497"><time>2026-05-02T21:02:30Z</time></trkpt>
</trkseg>
</trk>
<trk>
<name>lasas48</name>
<cmt>q</cmt>
<desc>Ans Sentier n°48 </desc>
<link href="https://chemins.be/ans/sentier/48"/><trkseg>
<trkpt lat="50.645498" lon="5.531462"><time>2026-05-02T20:42:30Z</time></trkpt>
<trkpt lat="50.646521" lon="5.531291"><time>2026-05-02T20:52:30Z</time></trkpt>
<trkpt lat="50.646851" lon="5.531289"><time>2026-05-02T21:02:30Z</time></trkpt>
</trkseg></trk>
<trk>
<name>lasas48</name>
<cmt>v</cmt>
<desc>Ans Sentier n°48 </desc>
<link href="https://chemins.be/ans/sentier/48"/><trkseg>
<trkpt lat="50.646851" lon="5.531289"><time>2026-05-02T21:02:30Z</time></trkpt>
<trkpt lat="50.647540" lon="5.531509"><time>2026-05-02T21:12:30Z</time></trkpt>
</trkseg></trk>
<trk>
<name>lasas48</name>
<cmt>d</cmt>
<desc>Ans Sentier n°48 </desc>
<link href="https://chemins.be/ans/sentier/48"/><trkseg>
<trkpt lat="50.647540" lon="5.531509"><time>2026-05-02T21:12:30Z</time></trkpt>
<trkpt lat="50.648019" lon="5.531399"><time>2026-05-02T21:22:30Z</time></trkpt>
<trkpt lat="50.648484" lon="5.531325"><time>2026-05-02T21:32:30Z</time></trkpt>
</trkseg></trk>
<trk>
<name>lasas48</name>
<cmt>q</cmt>
<desc>Ans Sentier n°48 </desc>
<link href="https://chemins.be/ans/sentier/48"/><trkseg>
<trkpt lat="50.648484" lon="5.531325"><time>2026-05-02T21:32:30Z</time></trkpt>
<trkpt lat="50.649193" lon="5.531187"><time>2026-05-02T21:42:30Z</time></trkpt>
</trkseg>
</trk>
<trk>
<name>lasas49</name>
<cmt>r</cmt>
<desc>Ans Sentier n°49 </desc>
<link href="https://chemins.be/ans/sentier/49"/><trkseg>
<trkpt lat="50.642881" lon="5.536777"><time>2026-05-02T20:42:30Z</time></trkpt>
<trkpt lat="50.642772" lon="5.536507"><time>2026-05-02T20:52:30Z</time></trkpt>
</trkseg></trk>
<trk>
<name>lasas49</name>
<cmt>s</cmt>
<desc>Ans Sentier n°49 </desc>
<link href="https://chemins.be/ans/sentier/49"/><trkseg>
<trkpt lat="50.642772" lon="5.536507"><time>2026-05-02T20:52:30Z</time></trkpt>
<trkpt lat="50.642681" lon="5.535057"><time>2026-05-02T21:02:30Z</time></trkpt>
</trkseg></trk>
<trk>
<name>lasas49</name>
<cmt>v</cmt>
<desc>Ans Sentier n°49 </desc>
<link href="https://chemins.be/ans/sentier/49"/><trkseg>
<trkpt lat="50.642681" lon="5.535057"><time>2026-05-02T21:02:30Z</time></trkpt>
<trkpt lat="50.642658" lon="5.534767"><time>2026-05-02T21:12:30Z</time></trkpt>
<trkpt lat="50.642188" lon="5.533684"><time>2026-05-02T21:22:30Z</time></trkpt>
</trkseg>
</trk>
<trk>
<name>lasas5</name>
<cmt>s</cmt>
<desc>Ans Chemin n°5 </desc>
<link href="https://chemins.be/ans/chemin/5"/><trkseg>
<trkpt lat="50.659392" lon="5.536331"><time>2026-05-02T20:42:30Z</time></trkpt>
<trkpt lat="50.661287" lon="5.538019"><time>2026-05-02T20:52:30Z</time></trkpt>
</trkseg>
</trk>
<trk>
<name>lasas50</name>
<cmt>r</cmt>
<desc>Ans Sentier n°50 </desc>
<link href="https://chemins.be/ans/sentier/50"/><trkseg>
<trkpt lat="50.642767" lon="5.536524"><time>2026-05-02T20:42:30Z</time></trkpt>
<trkpt lat="50.642576" lon="5.536034"><time>2026-05-02T20:52:30Z</time></trkpt>
</trkseg></trk>
<trk>
<name>lasas50</name>
<cmt>q</cmt>
<desc>Ans Sentier n°50 </desc>
<link href="https://chemins.be/ans/sentier/50"/><trkseg>
<trkpt lat="50.642576" lon="5.536034"><time>2026-05-02T20:52:30Z</time></trkpt>
<trkpt lat="50.641814" lon="5.534081"><time>2026-05-02T21:02:30Z</time></trkpt>
</trkseg>
</trk>
<trk>
<name>lasas51</name>
<cmt>q</cmt>
<desc>Ans Sentier n°51 </desc>
<link href="https://chemins.be/ans/sentier/51"/><trkseg>
<trkpt lat="50.660291" lon="5.539955"><time>2026-05-02T20:42:30Z</time></trkpt>
<trkpt lat="50.661553" lon="5.540195"><time>2026-05-02T20:52:30Z</time></trkpt>
<trkpt lat="50.662538" lon="5.540101"><time>2026-05-02T21:02:30Z</time></trkpt>
<trkpt lat="50.663653" lon="5.539733"><time>2026-05-02T21:12:30Z</time></trkpt>
<trkpt lat="50.664360" lon="5.539500"><time>2026-05-02T21:22:30Z</time></trkpt>
</trkseg>
</trk>
<trk>
<name>lasas52</name>
<cmt>r</cmt>
<desc>Ans Sentier n°52 Rue de l'Égalité</desc>
<link href="https://chemins.be/ans/sentier/52"/><trkseg>
<trkpt lat="50.657863" lon="5.526524"><time>2026-05-02T20:42:30Z</time></trkpt>
<trkpt lat="50.658353" lon="5.527022"><time>2026-05-02T20:52:30Z</time></trkpt>
</trkseg></trk>
<trk>
<name>lasas52</name>
<cmt>s</cmt>
<desc>Ans Sentier n°52 Rue de l'Égalité</desc>
<link href="https://chemins.be/ans/sentier/52"/><trkseg>
<trkpt lat="50.658353" lon="5.527022"><time>2026-05-02T20:52:30Z</time></trkpt>
<trkpt lat="50.659251" lon="5.532850"><time>2026-05-02T21:02:30Z</time></trkpt>
<trkpt lat="50.659536" lon="5.536296"><time>2026-05-02T21:12:30Z</time></trkpt>
</trkseg>
</trk>
<trk>
<name>lasas53</name>
<cmt>s</cmt>
<desc>Ans Sentier n°53 </desc>
<link href="https://chemins.be/ans/sentier/53"/><trkseg>
<trkpt lat="50.663016" lon="5.536253"><time>2026-05-02T20:42:30Z</time></trkpt>
<trkpt lat="50.661699" lon="5.535991"><time>2026-05-02T20:52:30Z</time></trkpt>
<trkpt lat="50.659447" lon="5.536326"><time>2026-05-02T21:02:30Z</time></trkpt>
</trkseg>
</trk>
<trk>
<name>lasas54</name>
<cmt>q</cmt>
<desc>Ans Sentier n°54 </desc>
<link href="https://chemins.be/ans/sentier/54"/><trkseg>
<trkpt lat="50.662596" lon="5.514725"><time>2026-05-02T20:42:30Z</time></trkpt>
<trkpt lat="50.664209" lon="5.515521"><time>2026-05-02T20:52:30Z</time></trkpt>
</trkseg>
</trk>
<trk>
<name>lasas55</name>
<cmt>q</cmt>
<desc>Ans Sentier n°55 </desc>
<link href="https://chemins.be/ans/sentier/55"/><trkseg>
<trkpt lat="50.658991" lon="5.518717"><time>2026-05-02T20:42:30Z</time></trkpt>
<trkpt lat="50.659480" lon="5.517272"><time>2026-05-02T20:52:30Z</time></trkpt>
<trkpt lat="50.660206" lon="5.513238"><time>2026-05-02T21:02:30Z</time></trkpt>
<trkpt lat="50.660986" lon="5.513610"><time>2026-05-02T21:12:30Z</time></trkpt>
</trkseg>
</trk>
<trk>
<name>lasas56</name>
<cmt>q</cmt>
<desc>Ans Sentier n°56 </desc>
<link href="https://chemins.be/ans/sentier/56"/><trkseg>
<trkpt lat="50.657681" lon="5.517148"><time>2026-05-02T20:42:30Z</time></trkpt>
<trkpt lat="50.658098" lon="5.517327"><time>2026-05-02T20:52:30Z</time></trkpt>
<trkpt lat="50.659037" lon="5.518622"><time>2026-05-02T21:02:30Z</time></trkpt>
</trkseg>
</trk>
<trk>
<name>lasas57</name>
<cmt>q</cmt>
<desc>Ans Sentier n°57 </desc>
<link href="https://chemins.be/ans/sentier/57"/><trkseg>
<trkpt lat="50.653097" lon="5.515861"><time>2026-05-02T20:42:30Z</time></trkpt>
<trkpt lat="50.651918" lon="5.516161"><time>2026-05-02T20:52:30Z</time></trkpt>
<trkpt lat="50.651178" lon="5.517291"><time>2026-05-02T21:02:30Z</time></trkpt>
<trkpt lat="50.650348" lon="5.517105"><time>2026-05-02T21:12:30Z</time></trkpt>
</trkseg>
</trk>
<trk>
<name>lasas59</name>
<cmt>q</cmt>
<desc>Ans Sentier n°59 </desc>
<link href="https://chemins.be/ans/sentier/59"/><trkseg>
<trkpt lat="50.652820" lon="5.524685"><time>2026-05-02T20:42:30Z</time></trkpt>
<trkpt lat="50.651987" lon="5.525797"><time>2026-05-02T20:52:30Z</time></trkpt>
</trkseg></trk>
<trk>
<name>lasas59</name>
<cmt>s</cmt>
<desc>Ans Sentier n°59 </desc>
<link href="https://chemins.be/ans/sentier/59"/><trkseg>
<trkpt lat="50.651987" lon="5.525797"><time>2026-05-02T20:52:30Z</time></trkpt>
<trkpt lat="50.651116" lon="5.526960"><time>2026-05-02T21:02:30Z</time></trkpt>
<trkpt lat="50.650908" lon="5.526536"><time>2026-05-02T21:12:30Z</time></trkpt>
</trkseg></trk>
<trk>
<name>lasas59</name>
<cmt>q</cmt>
<desc>Ans Sentier n°59 </desc>
<link href="https://chemins.be/ans/sentier/59"/><trkseg>
<trkpt lat="50.650908" lon="5.526536"><time>2026-05-02T21:12:30Z</time></trkpt>
<trkpt lat="50.648596" lon="5.525061"><time>2026-05-02T21:22:30Z</time></trkpt>
<trkpt lat="50.648075" lon="5.524685"><time>2026-05-02T21:32:30Z</time></trkpt>
</trkseg>
</trk>
<trk>
<name>lasas60</name>
<cmt>s</cmt>
<desc>Ans Sentier n°60 </desc>
<link href="https://chemins.be/ans/sentier/60"/><trkseg>
<trkpt lat="50.644282" lon="5.534407"><time>2026-05-02T20:42:30Z</time></trkpt>
<trkpt lat="50.644015" lon="5.534415"><time>2026-05-02T20:52:30Z</time></trkpt>
<trkpt lat="50.643448" lon="5.533699"><time>2026-05-02T21:02:30Z</time></trkpt>
<trkpt lat="50.643040" lon="5.533091"><time>2026-05-02T21:12:30Z</time></trkpt>
</trkseg>
</trk>
<trk>
<name>lasas7</name>
<cmt>s</cmt>
<desc>Ans Chemin n°7 </desc>
<link href="https://chemins.be/ans/chemin/7"/><trkseg>
<trkpt lat="50.661310" lon="5.538008"><time>2026-05-02T20:42:30Z</time></trkpt>
<trkpt lat="50.663840" lon="5.539230"><time>2026-05-02T20:52:30Z</time></trkpt>
</trkseg></trk>
<trk>
<name>lasas7</name>
<cmt>r</cmt>
<desc>Ans Chemin n°7 </desc>
<link href="https://chemins.be/ans/chemin/7"/><trkseg>
<trkpt lat="50.663840" lon="5.539230"><time>2026-05-02T20:52:30Z</time></trkpt>
<trkpt lat="50.664420" lon="5.539510"><time>2026-05-02T21:02:30Z</time></trkpt>
</trkseg></trk>
<trk>
<name>lasas7</name>
<cmt>s</cmt>
<desc>Ans Chemin n°7 </desc>
<link href="https://chemins.be/ans/chemin/7"/><trkseg>
<trkpt lat="50.664420" lon="5.539510"><time>2026-05-02T21:02:30Z</time></trkpt>
<trkpt lat="50.666981" lon="5.539810"><time>2026-05-02T21:12:30Z</time></trkpt>
<trkpt lat="50.667970" lon="5.540275"><time>2026-05-02T21:22:30Z</time></trkpt>
<trkpt lat="50.669044" lon="5.541591"><time>2026-05-02T21:32:30Z</time></trkpt>
</trkseg>
</trk>
<trk>
<name>lasas9</name>
<cmt>q</cmt>
<desc>Ans Chemin n°9 </desc>
<link href="https://chemins.be/ans/chemin/9"/><trkseg>
<trkpt lat="50.657500" lon="5.520150"><time>2026-05-02T20:42:30Z</time></trkpt>
<trkpt lat="50.657972" lon="5.520929"><time>2026-05-02T20:52:30Z</time></trkpt>
</trkseg>
</trk>
<trk>
<name>lasasi1</name>
<cmt>v</cmt>
<desc>Ans Sentier n°i1 </desc>
<link href="https://chemins.be/ans/sentier/i1"/><trkseg>
<trkpt lat="50.647230" lon="5.547157"><time>2026-05-02T20:42:30Z</time></trkpt>
<trkpt lat="50.647800" lon="5.545913"><time>2026-05-02T20:52:30Z</time></trkpt>
<trkpt lat="50.648232" lon="5.545004"><time>2026-05-02T21:02:30Z</time></trkpt>
</trkseg>
</trk>
<trk>
<name>lasasi10</name>
<cmt>v</cmt>
<desc>Ans Sentier n°i10 </desc>
<link href="https://chemins.be/ans/sentier/i10"/><trkseg>
<trkpt lat="50.655546" lon="5.519949"><time>2026-05-02T20:42:30Z</time></trkpt>
<trkpt lat="50.654913" lon="5.519953"><time>2026-05-02T20:52:30Z</time></trkpt>
</trkseg>
</trk>
<trk>
<name>lasasi11</name>
<cmt>v</cmt>
<desc>Ans Sentier n°i11 </desc>
<link href="https://chemins.be/ans/sentier/i11"/><trkseg>
<trkpt lat="50.656521" lon="5.521155"><time>2026-05-02T20:42:30Z</time></trkpt>
<trkpt lat="50.656323" lon="5.520600"><time>2026-05-02T20:52:30Z</time></trkpt>
<trkpt lat="50.656219" lon="5.520582"><time>2026-05-02T21:02:30Z</time></trkpt>
</trkseg>
</trk>
<trk>
<name>lasasi12</name>
<cmt>v</cmt>
<desc>Ans Sentier n°i12 </desc>
<link href="https://chemins.be/ans/sentier/i12"/><trkseg>
<trkpt lat="50.656383" lon="5.518523"><time>2026-05-02T20:42:30Z</time></trkpt>
<trkpt lat="50.656515" lon="5.518050"><time>2026-05-02T20:52:30Z</time></trkpt>
<trkpt lat="50.656737" lon="5.518154"><time>2026-05-02T21:02:30Z</time></trkpt>
</trkseg>
</trk>
<trk>
<name>lasasi13</name>
<cmt>q</cmt>
<desc>Ans Chemin n°i13 Rue Hubert Goffin</desc>
<link href="https://chemins.be/ans/chemin/i13"/><trkseg>
<trkpt lat="50.649233" lon="5.531274"><time>2026-05-02T20:42:30Z</time></trkpt>
<trkpt lat="50.649206" lon="5.531358"><time>2026-05-02T20:52:30Z</time></trkpt>
<trkpt lat="50.649096" lon="5.532058"><time>2026-05-02T21:02:30Z</time></trkpt>
<trkpt lat="50.649200" lon="5.532766"><time>2026-05-02T21:12:30Z</time></trkpt>
<trkpt lat="50.649749" lon="5.532966"><time>2026-05-02T21:22:30Z</time></trkpt>
<trkpt lat="50.650534" lon="5.532480"><time>2026-05-02T21:32:30Z</time></trkpt>
</trkseg></trk>
<trk>
<name>lasasi13</name>
<cmt>v</cmt>
<desc>Ans Chemin n°i13 Rue Hubert Goffin</desc>
<link href="https://chemins.be/ans/chemin/i13"/><trkseg>
<trkpt lat="50.650534" lon="5.532480"><time>2026-05-02T21:32:30Z</time></trkpt>
<trkpt lat="50.650821" lon="5.531445"><time>2026-05-02T21:42:30Z</time></trkpt>
<trkpt lat="50.651194" lon="5.531024"><time>2026-05-02T21:52:30Z</time></trkpt>
<trkpt lat="50.652544" lon="5.529970"><time>2026-05-02T22:02:30Z</time></trkpt>
<trkpt lat="50.653406" lon="5.527396"><time>2026-05-02T22:12:30Z</time></trkpt>
</trkseg>
</trk>
<trk>
<name>lasasi14</name>
<cmt>v</cmt>
<desc>Ans Chemin n°i14 </desc>
<link href="https://chemins.be/ans/chemin/i14"/><trkseg>
<trkpt lat="50.649269" lon="5.531593"><time>2026-05-02T20:42:30Z</time></trkpt>
<trkpt lat="50.649680" lon="5.531671"><time>2026-05-02T20:52:30Z</time></trkpt>
</trkseg>
</trk>
<trk>
<name>lasasi15</name>
<cmt>r</cmt>
<desc>Ans Sentier n°i15 Rue Hubert Goffin</desc>
<link href="https://chemins.be/ans/sentier/i15"/><trkseg>
<trkpt lat="50.649264" lon="5.531305"><time>2026-05-02T20:42:30Z</time></trkpt>
<trkpt lat="50.649604" lon="5.531402"><time>2026-05-02T20:52:30Z</time></trkpt>
</trkseg></trk>
<trk>
<name>lasasi15</name>
<cmt>d</cmt>
<desc>Ans Sentier n°i15 Rue Hubert Goffin</desc>
<link href="https://chemins.be/ans/sentier/i15"/><trkseg>
<trkpt lat="50.649604" lon="5.531402"><time>2026-05-02T20:52:30Z</time></trkpt>
<trkpt lat="50.649778" lon="5.531287"><time>2026-05-02T21:02:30Z</time></trkpt>
<trkpt lat="50.649921" lon="5.531271"><time>2026-05-02T21:12:30Z</time></trkpt>
<trkpt lat="50.650154" lon="5.531244"><time>2026-05-02T21:22:30Z</time></trkpt>
<trkpt lat="50.650295" lon="5.531538"><time>2026-05-02T21:32:30Z</time></trkpt>
<trkpt lat="50.651102" lon="5.530894"><time>2026-05-02T21:42:30Z</time></trkpt>
</trkseg></trk>
<trk>
<name>lasasi15</name>
<cmt>q</cmt>
<desc>Ans Sentier n°i15 Rue Hubert Goffin</desc>
<link href="https://chemins.be/ans/sentier/i15"/><trkseg>
<trkpt lat="50.651102" lon="5.530894"><time>2026-05-02T21:42:30Z</time></trkpt>
<trkpt lat="50.650812" lon="5.529327"><time>2026-05-02T21:52:30Z</time></trkpt>
<trkpt lat="50.650517" lon="5.528741"><time>2026-05-02T22:02:30Z</time></trkpt>
<trkpt lat="50.650236" lon="5.528283"><time>2026-05-02T22:12:30Z</time></trkpt>
</trkseg>
</trk>
<trk>
<name>lasasi16</name>
<cmt>q</cmt>
<desc>Ans Chemin n°i16 </desc>
<link href="https://chemins.be/ans/chemin/i16"/><trkseg>
<trkpt lat="50.650327" lon="5.527911"><time>2026-05-02T20:42:30Z</time></trkpt>
<trkpt lat="50.650209" lon="5.527875"><time>2026-05-02T20:52:30Z</time></trkpt>
<trkpt lat="50.649773" lon="5.527854"><time>2026-05-02T21:02:30Z</time></trkpt>
<trkpt lat="50.649737" lon="5.527368"><time>2026-05-02T21:12:30Z</time></trkpt>
<trkpt lat="50.649429" lon="5.526695"><time>2026-05-02T21:22:30Z</time></trkpt>
</trkseg>
</trk>
<trk>
<name>lasasi17</name>
<cmt>v</cmt>
<desc>Ans Chemin n°i17 </desc>
<link href="https://chemins.be/ans/chemin/i17"/><trkseg>
<trkpt lat="50.649438" lon="5.530143"><time>2026-05-02T20:42:30Z</time></trkpt>
<trkpt lat="50.649157" lon="5.529892"><time>2026-05-02T20:52:30Z</time></trkpt>
<trkpt lat="50.648830" lon="5.530078"><time>2026-05-02T21:02:30Z</time></trkpt>
<trkpt lat="50.648426" lon="5.530078"><time>2026-05-02T21:12:30Z</time></trkpt>
<trkpt lat="50.648413" lon="5.530601"><time>2026-05-02T21:22:30Z</time></trkpt>
</trkseg>
</trk>
<trk>
<name>lasasi18</name>
<cmt>q</cmt>
<desc>Ans Chemin n°i18 </desc>
<link href="https://chemins.be/ans/chemin/i18"/><trkseg>
<trkpt lat="50.649253" lon="5.530983"><time>2026-05-02T20:42:30Z</time></trkpt>
<trkpt lat="50.648951" lon="5.530377"><time>2026-05-02T20:52:30Z</time></trkpt>
<trkpt lat="50.649129" lon="5.529928"><time>2026-05-02T21:02:30Z</time></trkpt>
</trkseg>
</trk>
<trk>
<name>lasasi19</name>
<cmt>r</cmt>
<desc>Ans Chemin n°i19 Impasse Hubert Goffin</desc>
<link href="https://chemins.be/ans/chemin/i19"/><trkseg>
<trkpt lat="50.648824" lon="5.528403"><time>2026-05-02T20:42:30Z</time></trkpt>
<trkpt lat="50.648575" lon="5.528539"><time>2026-05-02T20:52:30Z</time></trkpt>
<trkpt lat="50.648298" lon="5.528432"><time>2026-05-02T21:02:30Z</time></trkpt>
<trkpt lat="50.648008" lon="5.529698"><time>2026-05-02T21:12:30Z</time></trkpt>
</trkseg></trk>
<trk>
<name>lasasi19</name>
<cmt>v</cmt>
<desc>Ans Chemin n°i19 Impasse Hubert Goffin</desc>
<link href="https://chemins.be/ans/chemin/i19"/><trkseg>
<trkpt lat="50.648008" lon="5.529698"><time>2026-05-02T21:12:30Z</time></trkpt>
<trkpt lat="50.647918" lon="5.530399"><time>2026-05-02T21:22:30Z</time></trkpt>
</trkseg></trk>
<trk>
<name>lasasi19</name>
<cmt>d</cmt>
<desc>Ans Chemin n°i19 Impasse Hubert Goffin</desc>
<link href="https://chemins.be/ans/chemin/i19"/><trkseg>
<trkpt lat="50.647918" lon="5.530399"><time>2026-05-02T21:22:30Z</time></trkpt>
<trkpt lat="50.648022" lon="5.531394"><time>2026-05-02T21:32:30Z</time></trkpt>
</trkseg>
</trk>
<trk>
<name>lasasi2</name>
<cmt>v</cmt>
<desc>Ans Chemin n°i2 Ruelle Falihe</desc>
<link href="https://chemins.be/ans/chemin/i2"/><trkseg>
<trkpt lat="50.654594" lon="5.552532"><time>2026-05-02T20:42:30Z</time></trkpt>
<trkpt lat="50.654347" lon="5.552921"><time>2026-05-02T20:52:30Z</time></trkpt>
<trkpt lat="50.653675" lon="5.551844"><time>2026-05-02T21:02:30Z</time></trkpt>
<trkpt lat="50.652718" lon="5.550406"><time>2026-05-02T21:12:30Z</time></trkpt>
<trkpt lat="50.652605" lon="5.550007"><time>2026-05-02T21:22:30Z</time></trkpt>
<trkpt lat="50.652563" lon="5.549709"><time>2026-05-02T21:32:30Z</time></trkpt>
<trkpt lat="50.652511" lon="5.549495"><time>2026-05-02T21:42:30Z</time></trkpt>
<trkpt lat="50.652441" lon="5.549338"><time>2026-05-02T21:52:30Z</time></trkpt>
<trkpt lat="50.652138" lon="5.549090"><time>2026-05-02T22:02:30Z</time></trkpt>
<trkpt lat="50.651675" lon="5.547791"><time>2026-05-02T22:12:30Z</time></trkpt>
</trkseg>
</trk>
<trk>
<name>lasasi20</name>
<cmt>v</cmt>
<desc>Ans Sentier n°i20 Rue du Plan Incliné</desc>
<link href="https://chemins.be/ans/sentier/i20"/><trkseg>
<trkpt lat="50.652766" lon="5.536107"><time>2026-05-02T20:42:30Z</time></trkpt>
<trkpt lat="50.652523" lon="5.536082"><time>2026-05-02T20:52:30Z</time></trkpt>
</trkseg></trk>
<trk>
<name>lasasi20</name>
<cmt>b</cmt>
<desc>Ans Sentier n°i20 Rue du Plan Incliné</desc>
<link href="https://chemins.be/ans/sentier/i20"/><trkseg>
<trkpt lat="50.652523" lon="5.536082"><time>2026-05-02T20:52:30Z</time></trkpt>
<trkpt lat="50.652387" lon="5.535953"><time>2026-05-02T21:02:30Z</time></trkpt>
<trkpt lat="50.652596" lon="5.535395"><time>2026-05-02T21:12:30Z</time></trkpt>
</trkseg></trk>
<trk>
<name>lasasi20</name>
<cmt>r</cmt>
<desc>Ans Sentier n°i20 Rue du Plan Incliné</desc>
<link href="https://chemins.be/ans/sentier/i20"/><trkseg>
<trkpt lat="50.652596" lon="5.535395"><time>2026-05-02T21:12:30Z</time></trkpt>
<trkpt lat="50.653040" lon="5.534471"><time>2026-05-02T21:22:30Z</time></trkpt>
</trkseg>
</trk>
<trk>
<name>lasasi21</name>
<cmt>v</cmt>
<desc>Ans Sentier n°i21 </desc>
<link href="https://chemins.be/ans/sentier/i21"/><trkseg>
<trkpt lat="50.644756" lon="5.538395"><time>2026-05-02T20:42:30Z</time></trkpt>
<trkpt lat="50.644987" lon="5.538273"><time>2026-05-02T20:52:30Z</time></trkpt>
<trkpt lat="50.644987" lon="5.538080"><time>2026-05-02T21:02:30Z</time></trkpt>
<trkpt lat="50.645306" lon="5.537561"><time>2026-05-02T21:12:30Z</time></trkpt>
<trkpt lat="50.645408" lon="5.537427"><time>2026-05-02T21:22:30Z</time></trkpt>
</trkseg>
</trk>
<trk>
<name>lasasi22</name>
<cmt>r</cmt>
<desc>Ans Chemin n°i22 </desc>
<link href="https://chemins.be/ans/chemin/i22"/><trkseg>
<trkpt lat="50.653240" lon="5.534659"><time>2026-05-02T20:42:30Z</time></trkpt>
<trkpt lat="50.653085" lon="5.534475"><time>2026-05-02T20:52:30Z</time></trkpt>
</trkseg>
</trk>
<trk>
<name>lasasi23</name>
<cmt>v</cmt>
<desc>Ans Chemin n°i23 </desc>
<link href="https://chemins.be/ans/chemin/i23"/><trkseg>
<trkpt lat="50.647539" lon="5.541550"><time>2026-05-02T20:42:30Z</time></trkpt>
<trkpt lat="50.647716" lon="5.541321"><time>2026-05-02T20:52:30Z</time></trkpt>
<trkpt lat="50.647671" lon="5.540949"><time>2026-05-02T21:02:30Z</time></trkpt>
<trkpt lat="50.647818" lon="5.540191"><time>2026-05-02T21:12:30Z</time></trkpt>
<trkpt lat="50.648546" lon="5.539369"><time>2026-05-02T21:22:30Z</time></trkpt>
<trkpt lat="50.648809" lon="5.539623"><time>2026-05-02T21:32:30Z</time></trkpt>
<trkpt lat="50.648879" lon="5.539354"><time>2026-05-02T21:42:30Z</time></trkpt>
<trkpt lat="50.648919" lon="5.538831"><time>2026-05-02T21:52:30Z</time></trkpt>
<trkpt lat="50.649696" lon="5.537651"><time>2026-05-02T22:02:30Z</time></trkpt>
<trkpt lat="50.649881" lon="5.537472"><time>2026-05-02T22:12:30Z</time></trkpt>
<trkpt lat="50.650827" lon="5.536062"><time>2026-05-02T22:22:30Z</time></trkpt>
</trkseg>
</trk>
<trk>
<name>lasasi24</name>
<cmt>v</cmt>
<desc>Ans Chemin n°i24 </desc>
<link href="https://chemins.be/ans/chemin/i24"/><trkseg>
<trkpt lat="50.647949" lon="5.544071"><time>2026-05-02T20:42:30Z</time></trkpt>
<trkpt lat="50.648024" lon="5.544021"><time>2026-05-02T20:52:30Z</time></trkpt>
<trkpt lat="50.648067" lon="5.543767"><time>2026-05-02T21:02:30Z</time></trkpt>
<trkpt lat="50.648301" lon="5.543682"><time>2026-05-02T21:12:30Z</time></trkpt>
<trkpt lat="50.648972" lon="5.542652"><time>2026-05-02T21:22:30Z</time></trkpt>
<trkpt lat="50.649244" lon="5.541940"><time>2026-05-02T21:32:30Z</time></trkpt>
<trkpt lat="50.649555" lon="5.541464"><time>2026-05-02T21:42:30Z</time></trkpt>
<trkpt lat="50.649740" lon="5.540770"><time>2026-05-02T21:52:30Z</time></trkpt>
<trkpt lat="50.650041" lon="5.540041"><time>2026-05-02T22:02:30Z</time></trkpt>
<trkpt lat="50.650176" lon="5.539818"><time>2026-05-02T22:12:30Z</time></trkpt>
</trkseg>
</trk>
<trk>
<name>lasasi25</name>
<cmt>v</cmt>
<desc>Ans Chemin n°i25 </desc>
<link href="https://chemins.be/ans/chemin/i25"/><trkseg>
<trkpt lat="50.650105" lon="5.539698"><time>2026-05-02T20:42:30Z</time></trkpt>
<trkpt lat="50.650284" lon="5.539342"><time>2026-05-02T20:52:30Z</time></trkpt>
<trkpt lat="50.650485" lon="5.539119"><time>2026-05-02T21:02:30Z</time></trkpt>
<trkpt lat="50.650570" lon="5.538690"><time>2026-05-02T21:12:30Z</time></trkpt>
<trkpt lat="50.650443" lon="5.538291"><time>2026-05-02T21:22:30Z</time></trkpt>
<trkpt lat="50.649893" lon="5.537727"><time>2026-05-02T21:32:30Z</time></trkpt>
<trkpt lat="50.649329" lon="5.538218"><time>2026-05-02T21:42:30Z</time></trkpt>
</trkseg>
</trk>
<trk>
<name>lasasi26</name>
<cmt>d</cmt>
<desc>Ans Sentier n°i26 </desc>
<link href="https://chemins.be/ans/sentier/i26"/><trkseg>
<trkpt lat="50.647415" lon="5.541358"><time>2026-05-02T20:42:30Z</time></trkpt>
<trkpt lat="50.647672" lon="5.540987"><time>2026-05-02T20:52:30Z</time></trkpt>
</trkseg>
</trk>
<trk>
<name>lasasi27</name>
<cmt>v</cmt>
<desc>Ans Chemin n°i27 Rue Nouvelle Percée</desc>
<link href="https://chemins.be/ans/chemin/i27"/><trkseg>
<trkpt lat="50.644720" lon="5.538657"><time>2026-05-02T20:42:30Z</time></trkpt>
<trkpt lat="50.643845" lon="5.539176"><time>2026-05-02T20:52:30Z</time></trkpt>
</trkseg>
</trk>
<trk>
<name>lasasi28</name>
<cmt>q</cmt>
<desc>Ans Chemin n°i28 Cour Laurant</desc>
<link href="https://chemins.be/ans/chemin/i28"/><trkseg>
<trkpt lat="50.645085" lon="5.539523"><time>2026-05-02T20:42:30Z</time></trkpt>
<trkpt lat="50.644997" lon="5.539632"><time>2026-05-02T20:52:30Z</time></trkpt>
<trkpt lat="50.644544" lon="5.540197"><time>2026-05-02T21:02:30Z</time></trkpt>
<trkpt lat="50.644672" lon="5.540746"><time>2026-05-02T21:12:30Z</time></trkpt>
</trkseg>
</trk>
<trk>
<name>lasasi29</name>
<cmt>v</cmt>
<desc>Ans Sentier n°i29 </desc>
<link href="https://chemins.be/ans/sentier/i29"/><trkseg>
<trkpt lat="50.643996" lon="5.536509"><time>2026-05-02T20:42:30Z</time></trkpt>
<trkpt lat="50.643658" lon="5.536527"><time>2026-05-02T20:52:30Z</time></trkpt>
<trkpt lat="50.643545" lon="5.536452"><time>2026-05-02T21:02:30Z</time></trkpt>
</trkseg>
</trk>
<trk>
<name>lasasi3</name>
<cmt>v</cmt>
<desc>Ans Sentier n°i3 </desc>
<link href="https://chemins.be/ans/sentier/i3"/><trkseg>
<trkpt lat="50.663681" lon="5.555900"><time>2026-05-02T20:42:30Z</time></trkpt>
<trkpt lat="50.664253" lon="5.553225"><time>2026-05-02T20:52:30Z</time></trkpt>
<trkpt lat="50.663042" lon="5.552346"><time>2026-05-02T21:02:30Z</time></trkpt>
<trkpt lat="50.664316" lon="5.549106"><time>2026-05-02T21:12:30Z</time></trkpt>
<trkpt lat="50.664506" lon="5.549363"><time>2026-05-02T21:22:30Z</time></trkpt>
<trkpt lat="50.665694" lon="5.546488"><time>2026-05-02T21:32:30Z</time></trkpt>
<trkpt lat="50.665504" lon="5.546216"><time>2026-05-02T21:42:30Z</time></trkpt>
<trkpt lat="50.665694" lon="5.545544"><time>2026-05-02T21:52:30Z</time></trkpt>
<trkpt lat="50.665127" lon="5.544424"><time>2026-05-02T22:02:30Z</time></trkpt>
<trkpt lat="50.664969" lon="5.543551"><time>2026-05-02T22:12:30Z</time></trkpt>
<trkpt lat="50.665118" lon="5.543379"><time>2026-05-02T22:22:30Z</time></trkpt>
<trkpt lat="50.664996" lon="5.543050"><time>2026-05-02T22:32:30Z</time></trkpt>
<trkpt lat="50.665109" lon="5.542178"><time>2026-05-02T22:42:30Z</time></trkpt>
<trkpt lat="50.665023" lon="5.542221"><time>2026-05-02T22:52:30Z</time></trkpt>
<trkpt lat="50.664892" lon="5.541419"><time>2026-05-02T23:02:30Z</time></trkpt>
<trkpt lat="50.664823" lon="5.540819"><time>2026-05-02T23:12:30Z</time></trkpt>
<trkpt lat="50.664003" lon="5.539374"><time>2026-05-02T23:22:30Z</time></trkpt>
</trkseg>
</trk>
<trk>
<name>lasasi30</name>
<cmt>v</cmt>
<desc>Ans Sentier n°i30 </desc>
<link href="https://chemins.be/ans/sentier/i30"/><trkseg>
<trkpt lat="50.662093" lon="5.551656"><time>2026-05-02T20:42:30Z</time></trkpt>
<trkpt lat="50.662294" lon="5.551711"><time>2026-05-02T20:52:30Z</time></trkpt>
<trkpt lat="50.662434" lon="5.552825"><time>2026-05-02T21:02:30Z</time></trkpt>
<trkpt lat="50.662793" lon="5.552670"><time>2026-05-02T21:12:30Z</time></trkpt>
<trkpt lat="50.663032" lon="5.552327"><time>2026-05-02T21:22:30Z</time></trkpt>
</trkseg>
</trk>
<trk>
<name>lasasi31</name>
<cmt>v</cmt>
<desc>Ans Sentier n°i31 </desc>
<link href="https://chemins.be/ans/sentier/i31"/><trkseg>
<trkpt lat="50.661030" lon="5.545770"><time>2026-05-02T20:42:30Z</time></trkpt>
<trkpt lat="50.661291" lon="5.545598"><time>2026-05-02T20:52:30Z</time></trkpt>
<trkpt lat="50.661226" lon="5.544774"><time>2026-05-02T21:02:30Z</time></trkpt>
<trkpt lat="50.662009" lon="5.543710"><time>2026-05-02T21:12:30Z</time></trkpt>
<trkpt lat="50.663141" lon="5.543195"><time>2026-05-02T21:22:30Z</time></trkpt>
</trkseg>
</trk>
<trk>
<name>lasasi32</name>
<cmt>d</cmt>
<desc>Ans Chemin n°i32 </desc>
<link href="https://chemins.be/ans/chemin/i32"/><trkseg>
<trkpt lat="50.662858" lon="5.542079"><time>2026-05-02T20:42:30Z</time></trkpt>
<trkpt lat="50.663157" lon="5.543225"><time>2026-05-02T20:52:30Z</time></trkpt>
</trkseg></trk>
<trk>
<name>lasasi32</name>
<cmt>v</cmt>
<desc>Ans Chemin n°i32 </desc>
<link href="https://chemins.be/ans/chemin/i32"/><trkseg>
<trkpt lat="50.663157" lon="5.543225"><time>2026-05-02T20:52:30Z</time></trkpt>
<trkpt lat="50.663924" lon="5.545049"><time>2026-05-02T21:02:30Z</time></trkpt>
<trkpt lat="50.664904" lon="5.545478"><time>2026-05-02T21:12:30Z</time></trkpt>
<trkpt lat="50.665524" lon="5.546164"><time>2026-05-02T21:22:30Z</time></trkpt>
</trkseg>
</trk>
<trk>
<name>lasasi4</name>
<cmt>v</cmt>
<desc>Ans Sentier n°i4 </desc>
<link href="https://chemins.be/ans/sentier/i4"/><trkseg>
<trkpt lat="50.662623" lon="5.556165"><time>2026-05-02T20:42:30Z</time></trkpt>
<trkpt lat="50.662908" lon="5.556107"><time>2026-05-02T20:52:30Z</time></trkpt>
<trkpt lat="50.662951" lon="5.556143"><time>2026-05-02T21:02:30Z</time></trkpt>
<trkpt lat="50.663194" lon="5.556143"><time>2026-05-02T21:12:30Z</time></trkpt>
<trkpt lat="50.663186" lon="5.555998"><time>2026-05-02T21:22:30Z</time></trkpt>
<trkpt lat="50.663573" lon="5.555925"><time>2026-05-02T21:32:30Z</time></trkpt>
<trkpt lat="50.663648" lon="5.555826"><time>2026-05-02T21:42:30Z</time></trkpt>
<trkpt lat="50.663880" lon="5.555944"><time>2026-05-02T21:52:30Z</time></trkpt>
<trkpt lat="50.663953" lon="5.556016"><time>2026-05-02T22:02:30Z</time></trkpt>
</trkseg>
</trk>
<trk>
<name>lasasi5</name>
<cmt>v</cmt>
<desc>Ans Sentier n°i5 </desc>
<link href="https://chemins.be/ans/sentier/i5"/><trkseg>
<trkpt lat="50.665952" lon="5.538215"><time>2026-05-02T20:42:30Z</time></trkpt>
<trkpt lat="50.665644" lon="5.538716"><time>2026-05-02T20:52:30Z</time></trkpt>
<trkpt lat="50.665145" lon="5.539038"><time>2026-05-02T21:02:30Z</time></trkpt>
</trkseg>
</trk>
<trk>
<name>lasasi6</name>
<cmt>v</cmt>
<desc>Ans Sentier n°i6 Inaccessible si champ emblavé</desc>
<link href="https://chemins.be/ans/sentier/i6"/><trkseg>
<trkpt lat="50.663017" lon="5.553212"><time>2026-05-02T20:42:30Z</time></trkpt>
<trkpt lat="50.662985" lon="5.553008"><time>2026-05-02T20:52:30Z</time></trkpt>
<trkpt lat="50.663057" lon="5.552368"><time>2026-05-02T21:02:30Z</time></trkpt>
</trkseg>
</trk>
<trk>
<name>lasasi7</name>
<cmt>v</cmt>
<desc>Ans Sentier n°i7 </desc>
<link href="https://chemins.be/ans/sentier/i7"/><trkseg>
<trkpt lat="50.664846" lon="5.540840"><time>2026-05-02T20:42:30Z</time></trkpt>
<trkpt lat="50.665055" lon="5.541162"><time>2026-05-02T20:52:30Z</time></trkpt>
<trkpt lat="50.665449" lon="5.541090"><time>2026-05-02T21:02:30Z</time></trkpt>
<trkpt lat="50.665726" lon="5.540869"><time>2026-05-02T21:12:30Z</time></trkpt>
<trkpt lat="50.666011" lon="5.540525"><time>2026-05-02T21:22:30Z</time></trkpt>
<trkpt lat="50.666732" lon="5.541005"><time>2026-05-02T21:32:30Z</time></trkpt>
<trkpt lat="50.667367" lon="5.540690"><time>2026-05-02T21:42:30Z</time></trkpt>
<trkpt lat="50.667999" lon="5.540369"><time>2026-05-02T21:52:30Z</time></trkpt>
<trkpt lat="50.668418" lon="5.540144"><time>2026-05-02T22:02:30Z</time></trkpt>
</trkseg>
</trk>
<trk>
<name>lasasi8</name>
<cmt>v</cmt>
<desc>Ans Sentier n°i8 </desc>
<link href="https://chemins.be/ans/sentier/i8"/><trkseg>
<trkpt lat="50.661405" lon="5.536287"><time>2026-05-02T20:42:30Z</time></trkpt>
<trkpt lat="50.661547" lon="5.536271"><time>2026-05-02T20:52:30Z</time></trkpt>
<trkpt lat="50.661794" lon="5.536032"><time>2026-05-02T21:02:30Z</time></trkpt>
</trkseg>
</trk>
<trk>
<name>lasasi9</name>
<cmt>v</cmt>
<desc>Ans Sentier n°i9 </desc>
<link href="https://chemins.be/ans/sentier/i9"/><trkseg>
<trkpt lat="50.655527" lon="5.519534"><time>2026-05-02T20:42:30Z</time></trkpt>
<trkpt lat="50.655994" lon="5.519534"><time>2026-05-02T20:52:30Z</time></trkpt>
</trkseg>
</trk>
<trk>
<name>lasasL210</name>
<cmt>v</cmt>
<desc>Ans Chemin n°L210 RAVeL Ligne 210</desc>
<link href="https://chemins.be/ans/chemin/L210"/><trkseg>
<trkpt lat="50.659413" lon="5.518366"><time>2026-05-02T20:42:30Z</time></trkpt>
<trkpt lat="50.659536" lon="5.518623"><time>2026-05-02T20:52:30Z</time></trkpt>
<trkpt lat="50.658777" lon="5.520868"><time>2026-05-02T21:02:30Z</time></trkpt>
<trkpt lat="50.658428" lon="5.521567"><time>2026-05-02T21:12:30Z</time></trkpt>
<trkpt lat="50.657721" lon="5.522129"><time>2026-05-02T21:22:30Z</time></trkpt>
<trkpt lat="50.657332" lon="5.522360"><time>2026-05-02T21:32:30Z</time></trkpt>
<trkpt lat="50.656873" lon="5.522462"><time>2026-05-02T21:42:30Z</time></trkpt>
<trkpt lat="50.655596" lon="5.522417"><time>2026-05-02T21:52:30Z</time></trkpt>
<trkpt lat="50.653713" lon="5.522837"><time>2026-05-02T22:02:30Z</time></trkpt>
<trkpt lat="50.652211" lon="5.523387"><time>2026-05-02T22:12:30Z</time></trkpt>
<trkpt lat="50.650486" lon="5.523934"><time>2026-05-02T22:22:30Z</time></trkpt>
<trkpt lat="50.649166" lon="5.524535"><time>2026-05-02T22:32:30Z</time></trkpt>
<trkpt lat="50.648179" lon="5.525383"><time>2026-05-02T22:42:30Z</time></trkpt>
<trkpt lat="50.647870" lon="5.525922"><time>2026-05-02T22:52:30Z</time></trkpt>
<trkpt lat="50.647452" lon="5.526649"><time>2026-05-02T23:02:30Z</time></trkpt>
<trkpt lat="50.647002" lon="5.528880"><time>2026-05-02T23:12:30Z</time></trkpt>
<trkpt lat="50.646880" lon="5.531294"><time>2026-05-02T23:22:30Z</time></trkpt>
<trkpt lat="50.646731" lon="5.532517"><time>2026-05-02T23:32:30Z</time></trkpt>
<trkpt lat="50.645452" lon="5.534921"><time>2026-05-02T23:42:30Z</time></trkpt>
<trkpt lat="50.644317" lon="5.536179"><time>2026-05-02T23:52:30Z</time></trkpt>
<trkpt lat="50.642975" lon="5.537667"><time>2026-05-03T00:02:30Z</time></trkpt>
</trkseg>
</trk>
<trk>
<name>lasasL31</name>
<cmt>v</cmt>
<desc>Ans Chemin n°L31 RAVeL Ligne 31</desc>
<link href="https://chemins.be/ans/chemin/L31"/><trkseg>
<trkpt lat="50.660397" lon="5.518304"><time>2026-05-02T20:42:30Z</time></trkpt>
<trkpt lat="50.660617" lon="5.518862"><time>2026-05-02T20:52:30Z</time></trkpt>
<trkpt lat="50.660783" lon="5.519191"><time>2026-05-02T21:02:30Z</time></trkpt>
<trkpt lat="50.661123" lon="5.519860"><time>2026-05-02T21:12:30Z</time></trkpt>
<trkpt lat="50.663578" lon="5.523487"><time>2026-05-02T21:22:30Z</time></trkpt>
<trkpt lat="50.667413" lon="5.528837"><time>2026-05-02T21:32:30Z</time></trkpt>
<trkpt lat="50.668900" lon="5.530970"><time>2026-05-02T21:42:30Z</time></trkpt>
<trkpt lat="50.671312" lon="5.534431"><time>2026-05-02T21:52:30Z</time></trkpt>
</trkseg>
</trk>
</gpx>